createdAt,value
2023-04-25T00:00:53.479Z,7.90
2023-04-25T00:03:22.179Z,8.00
2023-04-25T00:05:50.040Z,8.00
2023-04-25T00:08:16.869Z,8.00
2023-04-25T00:10:43.704Z,8.00
2023-04-25T00:13:12.436Z,8.00
2023-04-25T00:15:39.698Z,7.90
2023-04-25T00:18:07.371Z,7.90
2023-04-25T00:20:34.174Z,7.80
2023-04-25T00:23:00.789Z,7.80
2023-04-25T00:25:27.555Z,7.80
2023-04-25T00:27:54.180Z,7.70
2023-04-25T00:30:21.092Z,7.60
2023-04-25T00:32:47.884Z,7.60
2023-04-25T00:35:14.550Z,7.50
2023-04-25T00:37:41.456Z,7.50
2023-04-25T00:40:08.838Z,7.60
2023-04-25T00:42:37.019Z,7.60
2023-04-25T00:45:05.311Z,7.70
2023-04-25T00:47:32.301Z,7.70
2023-04-25T00:49:59.008Z,7.70
2023-04-25T00:52:25.710Z,7.70
2023-04-25T00:54:52.371Z,7.70
2023-04-25T00:57:19.021Z,7.70
2023-04-25T00:59:47.192Z,7.60
2023-04-25T01:02:14.247Z,7.60
2023-04-25T01:04:41.345Z,7.70
2023-04-25T01:07:08.092Z,7.70
2023-04-25T01:09:34.932Z,7.70
2023-04-25T01:12:02.199Z,7.70
2023-04-25T01:14:29.202Z,7.80
2023-04-25T01:16:55.984Z,7.80
2023-04-25T01:19:22.751Z,7.80
2023-04-25T01:21:49.440Z,7.90
2023-04-25T01:24:16.542Z,7.90
2023-04-25T01:26:50.759Z,7.80
2023-04-25T01:29:18.752Z,7.90
2023-04-25T01:31:45.597Z,7.90
2023-04-25T01:34:12.586Z,7.80
2023-04-25T01:36:39.574Z,7.80
2023-04-25T01:39:06.292Z,7.80
2023-04-25T01:41:33.333Z,7.80
2023-04-25T01:44:00.151Z,7.80
2023-04-25T01:46:27.076Z,7.80
2023-04-25T01:48:54.161Z,7.80
2023-04-25T01:51:20.902Z,7.80
2023-04-25T01:53:47.733Z,7.70
2023-04-25T01:56:14.451Z,7.60
2023-04-25T01:58:41.164Z,7.60
2023-04-25T02:01:07.929Z,7.60
2023-04-25T02:03:35.632Z,7.50
2023-04-25T02:06:02.404Z,7.60
2023-04-25T02:08:29.167Z,7.50
2023-04-25T02:10:55.942Z,7.50
2023-04-25T02:13:22.700Z,7.60
2023-04-25T02:15:49.446Z,7.50
2023-04-25T02:18:19.535Z,7.50
2023-04-25T02:20:46.386Z,7.50
2023-04-25T02:23:13.064Z,7.50
2023-04-25T02:25:39.814Z,7.60
2023-04-25T02:28:06.484Z,7.60
2023-04-25T02:30:33.187Z,7.60
2023-04-25T02:33:00.143Z,7.70
2023-04-25T02:35:26.955Z,7.70
2023-04-25T02:37:53.601Z,7.70
2023-04-25T02:40:20.662Z,7.70
2023-04-25T02:42:47.321Z,7.70
2023-04-25T02:45:13.957Z,7.80
2023-04-25T02:47:40.688Z,7.90
2023-04-25T02:50:07.654Z,7.90
2023-04-25T02:52:34.351Z,7.90
2023-04-25T02:55:01.010Z,7.80
2023-04-25T02:57:27.669Z,7.80
2023-04-25T02:59:54.330Z,7.80
2023-04-25T03:02:21.640Z,7.70
2023-04-25T03:04:49.101Z,7.70
2023-04-25T03:07:15.836Z,7.70
2023-04-25T03:09:42.601Z,7.60
2023-04-25T03:12:09.250Z,7.60
2023-04-25T03:14:36.026Z,7.70
2023-04-25T03:17:02.807Z,7.70
2023-04-25T03:19:29.654Z,7.70
2023-04-25T03:21:56.336Z,7.70
2023-04-25T03:24:23.124Z,7.80
2023-04-25T03:26:49.809Z,7.80
2023-04-25T03:29:16.464Z,7.80
2023-04-25T03:31:43.155Z,7.70
2023-04-25T03:34:09.805Z,7.70
2023-04-25T03:36:36.476Z,7.70
2023-04-25T03:39:03.520Z,7.70
2023-04-25T03:41:30.784Z,7.70
2023-04-25T03:43:57.438Z,7.70
2023-04-25T03:46:24.180Z,7.80
2023-04-25T03:48:50.996Z,7.80
2023-04-25T03:51:17.661Z,7.90
2023-04-25T03:53:44.348Z,7.90
2023-04-25T03:56:11.026Z,7.90
2023-04-25T03:58:37.797Z,7.90
2023-04-25T04:01:08.351Z,7.90
2023-04-25T04:03:37.097Z,7.90
2023-04-25T04:06:07.625Z,7.90
2023-04-25T04:08:34.551Z,7.90
2023-04-25T04:11:01.309Z,7.80
2023-04-25T04:13:28.404Z,7.90
2023-04-25T04:15:55.106Z,7.80
2023-04-25T04:18:22.046Z,7.70
2023-04-25T04:20:48.750Z,7.70
2023-04-25T04:23:15.622Z,7.70
2023-04-25T04:25:42.831Z,7.70
2023-04-25T04:28:09.470Z,7.80
2023-04-25T04:30:38.570Z,7.90
2023-04-25T04:33:05.300Z,8.00
2023-04-25T04:35:31.991Z,8.00
2023-04-25T04:37:58.657Z,8.10
2023-04-25T04:40:26.539Z,8.10
2023-04-25T04:42:54.283Z,8.10
2023-04-25T04:45:21.576Z,8.10
2023-04-25T04:47:49.767Z,8.10
2023-04-25T04:50:17.199Z,8.20
2023-04-25T04:52:43.956Z,8.10
2023-04-25T04:55:10.645Z,8.10
2023-04-25T04:57:37.916Z,8.10
2023-04-25T05:00:11.497Z,8.00
2023-04-25T05:02:39.613Z,8.00
2023-04-25T05:05:06.749Z,7.90
2023-04-25T05:07:33.473Z,8.00
2023-04-25T05:10:00.129Z,8.10
2023-04-25T05:12:26.792Z,8.10
2023-04-25T05:14:53.475Z,8.10
2023-04-25T05:17:20.114Z,8.10
2023-04-25T05:19:46.954Z,8.20
2023-04-25T05:22:13.620Z,8.20
2023-04-25T05:24:40.541Z,8.20
2023-04-25T05:27:07.409Z,8.30
2023-04-25T05:29:34.283Z,8.20
2023-04-25T05:32:01.074Z,8.30
2023-04-25T05:34:27.747Z,8.60
2023-04-25T05:36:54.406Z,8.70
2023-04-25T05:39:21.647Z,8.80
2023-04-25T05:41:48.395Z,8.60
2023-04-25T05:44:16.941Z,8.60
2023-04-25T05:46:43.659Z,8.60
2023-04-25T05:49:10.464Z,8.60
2023-04-25T05:51:37.146Z,8.60
2023-04-25T05:54:03.880Z,8.70
2023-04-25T05:56:30.900Z,8.70
2023-04-25T05:58:57.586Z,8.80
2023-04-25T06:01:24.444Z,8.90
2023-04-25T06:03:52.981Z,8.90
2023-04-25T06:06:20.224Z,9.00
2023-04-25T06:08:47.032Z,9.00
2023-04-25T06:11:13.716Z,9.00
2023-04-25T06:13:40.493Z,9.10
2023-04-25T06:16:07.341Z,9.10
2023-04-25T06:18:34.019Z,9.20
2023-04-25T06:21:00.683Z,9.10
2023-04-25T06:23:27.528Z,9.10
2023-04-25T06:25:54.212Z,9.20
2023-04-25T06:28:23.035Z,9.20
2023-04-25T06:30:49.771Z,9.20
2023-04-25T06:33:16.456Z,9.20
2023-04-25T06:35:43.295Z,9.10
2023-04-25T06:38:10.216Z,9.00
2023-04-25T06:40:36.895Z,8.90
2023-04-25T06:43:03.493Z,8.80
2023-04-25T06:45:30.283Z,8.80
2023-04-25T06:47:57.042Z,8.80
2023-04-25T06:50:23.794Z,8.90
2023-04-25T06:52:50.636Z,9.10
2023-04-25T06:55:17.314Z,9.10
2023-04-25T06:57:43.958Z,9.10
2023-04-25T07:00:10.887Z,9.10
2023-04-25T07:02:37.812Z,9.30
2023-04-25T07:05:05.316Z,9.60
2023-04-25T07:07:31.960Z,9.90
2023-04-25T07:09:58.621Z,10.00
2023-04-25T07:12:25.343Z,10.00
2023-04-25T07:14:51.963Z,10.10
2023-04-25T07:17:18.640Z,10.20
2023-04-25T07:19:45.825Z,10.30
2023-04-25T07:22:12.946Z,10.30
2023-04-25T07:24:40.398Z,10.30
2023-04-25T07:27:07.257Z,10.40
2023-04-25T07:29:36.790Z,10.40
2023-04-25T07:32:03.641Z,10.30
2023-04-25T07:34:31.352Z,10.20
2023-04-25T07:36:58.113Z,10.40
2023-04-25T07:39:24.831Z,10.40
2023-04-25T07:41:53.758Z,10.70
2023-04-25T07:44:21.829Z,10.80
2023-04-25T07:46:48.489Z,11.00
2023-04-25T07:49:15.399Z,11.20
2023-04-25T07:51:44.290Z,11.20
2023-04-25T07:54:13.457Z,11.00
2023-04-25T07:56:51.594Z,10.90
2023-04-25T07:59:19.753Z,10.90
2023-04-25T08:01:46.513Z,10.80
2023-04-25T08:04:13.358Z,10.90
2023-04-25T08:06:40.293Z,10.80
2023-04-25T08:09:07.349Z,10.90
2023-04-25T08:11:34.039Z,11.10
2023-04-25T08:14:00.788Z,11.20
2023-04-25T08:16:27.470Z,11.30
2023-04-25T08:18:54.419Z,11.50
2023-04-25T08:21:21.473Z,11.60
2023-04-25T08:23:48.198Z,11.80
2023-04-25T08:26:14.894Z,11.70
2023-04-25T08:28:41.587Z,11.90
2023-04-25T08:31:08.283Z,12.00
2023-04-25T08:33:34.952Z,12.20
2023-04-25T08:36:03.966Z,12.50
2023-04-25T08:38:30.739Z,12.40
2023-04-25T08:40:57.679Z,12.50
2023-04-25T08:43:24.496Z,12.30
2023-04-25T08:45:53.055Z,12.30
2023-04-25T08:48:19.788Z,12.50
2023-04-25T08:50:50.941Z,12.70
2023-04-25T08:53:20.418Z,13.20
2023-04-25T08:55:47.802Z,12.90
2023-04-25T08:58:15.058Z,12.60
2023-04-25T09:00:41.933Z,12.50
2023-04-25T09:03:09.792Z,12.70
2023-04-25T09:05:38.032Z,12.70
2023-04-25T09:08:05.902Z,12.50
2023-04-25T09:13:06.649Z,11.90
2023-04-25T09:15:34.079Z,11.60
2023-04-25T09:18:01.033Z,11.40
2023-04-25T09:20:30.283Z,11.30
2023-04-25T09:23:05.277Z,11.30
2023-04-25T09:25:36.956Z,11.60
2023-04-25T09:28:05.397Z,12.00
2023-04-25T09:30:33.028Z,12.30
2023-04-25T09:33:07.146Z,12.20
2023-04-25T09:35:41.090Z,12.30
2023-04-25T09:38:08.507Z,12.30
2023-04-25T09:40:35.318Z,12.40
2023-04-25T09:43:02.230Z,12.20
2023-04-25T09:45:31.231Z,12.20
2023-04-25T09:47:59.240Z,12.30
2023-04-25T09:50:26.303Z,12.10
2023-04-25T09:53:06.608Z,12.00
2023-04-25T09:55:35.193Z,11.70
2023-04-25T09:58:04.957Z,12.00
2023-04-25T10:00:32.073Z,12.10
2023-04-25T10:03:01.015Z,12.10
2023-04-25T10:05:29.882Z,12.60
2023-04-25T10:07:57.005Z,12.70
2023-04-25T10:10:26.886Z,12.70
2023-04-25T10:12:54.268Z,12.70
2023-04-25T10:15:21.997Z,12.80
2023-04-25T10:17:49.278Z,13.00
2023-04-25T10:20:17.019Z,12.90
2023-04-25T10:22:45.102Z,13.00
2023-04-25T10:25:12.264Z,13.10
2023-04-25T10:27:40.568Z,12.80
2023-04-25T10:30:12.443Z,12.70
2023-04-25T10:32:39.354Z,12.50
2023-04-25T10:35:12.249Z,12.90
2023-04-25T10:37:40.647Z,12.90
2023-04-25T10:40:11.290Z,12.90
2023-04-25T10:42:38.011Z,13.00
2023-04-25T10:45:08.556Z,12.90
2023-04-25T10:47:36.113Z,12.70
2023-04-25T10:50:07.228Z,12.40
2023-04-25T10:52:34.010Z,12.30
2023-04-25T10:55:03.731Z,12.40
2023-04-25T10:57:33.773Z,12.70
2023-04-25T11:00:10.570Z,12.90
2023-04-25T11:02:46.274Z,13.20
2023-04-25T11:05:32.897Z,13.50
2023-04-25T11:08:07.847Z,13.70
2023-04-25T11:10:36.702Z,13.40
2023-04-25T11:13:03.553Z,12.90
2023-04-25T11:15:30.683Z,12.50
2023-04-25T11:17:57.479Z,12.20
2023-04-25T11:20:26.986Z,12.30
2023-04-25T11:22:53.933Z,11.60
2023-04-25T11:25:21.219Z,10.90
2023-04-25T11:27:54.619Z,10.30
2023-04-25T11:30:21.859Z,10.20
2023-04-25T11:32:48.652Z,10.10
2023-04-25T11:35:16.250Z,10.10
2023-04-25T11:37:43.785Z,10.10
2023-04-25T11:40:11.172Z,10.20
2023-04-25T11:42:39.422Z,10.30
2023-04-25T11:45:06.916Z,10.50
2023-04-25T11:47:34.160Z,10.80
2023-04-25T11:50:01.319Z,10.90
2023-04-25T11:52:54.577Z,11.10
2023-04-25T11:55:21.434Z,11.30
2023-04-25T11:57:50.109Z,11.50
2023-04-25T12:00:21.371Z,11.60
2023-04-25T12:02:49.282Z,11.90
2023-04-25T12:05:31.275Z,12.00
2023-04-25T12:08:10.633Z,12.10
2023-04-25T12:10:38.252Z,12.30
2023-04-25T12:13:18.865Z,12.60
2023-04-25T12:15:45.687Z,13.10
2023-04-25T12:18:12.430Z,13.30
2023-04-25T12:20:39.174Z,13.40
2023-04-25T12:23:08.947Z,13.50
2023-04-25T12:25:35.987Z,13.30
2023-04-25T12:28:15.978Z,13.00
2023-04-25T12:30:58.815Z,12.80
2023-04-25T12:33:26.368Z,12.70
2023-04-25T12:35:53.537Z,12.60
2023-04-25T12:38:24.133Z,12.60
2023-04-25T12:40:50.972Z,12.70
2023-04-25T12:43:18.336Z,12.80
2023-04-25T12:45:54.549Z,13.00
2023-04-25T12:48:21.567Z,13.30
2023-04-25T12:50:50.136Z,13.60
2023-04-25T12:53:17.525Z,13.80
2023-04-25T12:55:44.467Z,13.70
2023-04-25T12:58:11.204Z,13.90
2023-04-25T13:00:37.946Z,13.80
2023-04-25T13:03:05.727Z,13.50
2023-04-25T13:05:32.675Z,13.40
2023-04-25T13:08:00.321Z,13.30
2023-04-25T13:10:27.158Z,13.00
2023-04-25T13:12:53.891Z,12.50
2023-04-25T13:15:20.650Z,12.10
2023-04-25T13:17:47.771Z,10.80
2023-04-25T13:20:15.941Z,9.70
2023-04-25T13:22:43.224Z,9.20
2023-04-25T13:25:10.105Z,8.70
2023-04-25T13:27:37.543Z,8.40
2023-04-25T13:30:08.279Z,8.20
2023-04-25T13:32:36.953Z,8.20
2023-04-25T13:35:10.504Z,7.90
2023-04-25T13:37:38.350Z,7.80
2023-04-25T13:40:06.570Z,7.70
2023-04-25T13:42:33.312Z,7.70
2023-04-25T13:44:59.965Z,7.60
2023-04-25T13:47:26.926Z,7.50
2023-04-25T13:49:53.662Z,7.50
2023-04-25T13:52:20.609Z,7.60
2023-04-25T13:54:47.565Z,7.60
2023-04-25T13:57:14.197Z,7.60
2023-04-25T13:59:41.793Z,7.70
2023-04-25T14:02:08.479Z,7.90
2023-04-25T14:04:35.220Z,8.00
2023-04-25T14:07:03.227Z,8.10
2023-04-25T14:09:29.982Z,8.20
2023-04-25T14:11:57.311Z,8.30
2023-04-25T14:14:24.466Z,8.40
2023-04-25T14:16:51.891Z,8.60
2023-04-25T14:19:21.541Z,9.00
2023-04-25T14:21:48.840Z,9.40
2023-04-25T14:24:15.850Z,9.50
2023-04-25T14:26:43.460Z,9.60
2023-04-25T14:29:12.568Z,9.60
2023-04-25T14:31:40.464Z,9.70
2023-04-25T14:34:07.662Z,10.00
2023-04-25T14:36:34.651Z,10.30
2023-04-25T14:39:02.019Z,10.50
2023-04-25T14:41:28.734Z,10.60
2023-04-25T14:43:56.640Z,10.60
2023-04-25T14:46:24.266Z,10.60
2023-04-25T14:48:51.317Z,10.50
2023-04-25T14:51:17.972Z,10.50
2023-04-25T14:53:44.704Z,10.40
2023-04-25T14:56:11.365Z,10.30
2023-04-25T14:58:39.802Z,10.10
2023-04-25T15:01:07.814Z,9.90
2023-04-25T15:03:35.083Z,9.80
2023-04-25T15:06:02.007Z,9.70
2023-04-25T15:08:28.689Z,9.40
2023-04-25T15:10:55.401Z,9.20
2023-04-25T15:13:22.080Z,9.10
2023-04-25T15:15:52.219Z,9.10
2023-04-25T15:18:19.682Z,9.10
2023-04-25T15:20:46.452Z,9.10
2023-04-25T15:23:13.227Z,9.20
2023-04-25T15:25:39.825Z,9.20
2023-04-25T15:28:06.513Z,9.30
2023-04-25T15:30:33.216Z,9.50
2023-04-25T15:32:59.951Z,9.80
2023-04-25T15:35:26.870Z,9.80
2023-04-25T15:37:53.638Z,9.80
2023-04-25T15:40:20.318Z,9.80
2023-04-25T15:42:48.152Z,9.90
2023-04-25T15:45:15.746Z,9.90
2023-04-25T15:47:43.075Z,9.60
2023-04-25T15:50:10.053Z,9.40
2023-04-25T15:52:37.201Z,9.40
2023-04-25T15:55:04.765Z,9.40
2023-04-25T15:57:32.926Z,9.30
2023-04-25T15:59:59.669Z,9.20
2023-04-25T16:02:26.848Z,9.20
2023-04-25T16:04:53.730Z,9.10
2023-04-25T16:07:20.576Z,9.10
2023-04-25T16:09:47.235Z,9.10
2023-04-25T16:12:13.932Z,8.90
2023-04-25T16:14:40.578Z,8.80
2023-04-25T16:17:07.234Z,8.70
2023-04-25T16:19:33.922Z,8.60
2023-04-25T16:22:01.720Z,8.50
2023-04-25T16:24:28.401Z,8.40
2023-04-25T16:26:55.060Z,8.50
2023-04-25T16:29:21.764Z,8.40
2023-04-25T16:31:48.664Z,8.50
2023-04-25T16:34:15.521Z,8.50
2023-04-25T16:36:42.244Z,8.40
2023-04-25T16:39:09.621Z,8.30
2023-04-25T16:41:36.846Z,8.20
2023-04-25T16:44:03.496Z,8.30
2023-04-25T16:46:30.236Z,8.30
2023-04-25T16:48:56.955Z,8.20
2023-04-25T16:51:23.655Z,8.30
2023-04-25T16:53:50.328Z,8.20
2023-04-25T16:56:17.231Z,8.20
2023-04-25T16:58:43.998Z,8.20
2023-04-25T17:01:11.436Z,8.10
2023-04-25T17:03:38.366Z,8.10
2023-04-25T17:06:05.285Z,8.20
2023-04-25T17:08:31.986Z,8.20
2023-04-25T17:10:59.915Z,8.10
2023-04-25T17:13:30.832Z,8.00
2023-04-25T17:15:58.966Z,8.00
2023-04-25T17:18:26.123Z,8.00
2023-04-25T17:20:52.778Z,8.10
2023-04-25T17:23:19.484Z,8.10
2023-04-25T17:25:46.487Z,8.20
2023-04-25T17:28:13.232Z,8.20
2023-04-25T17:30:40.402Z,8.10
2023-04-25T17:33:07.298Z,8.10
2023-04-25T17:35:34.096Z,8.10
2023-04-25T17:38:00.763Z,8.20
2023-04-25T17:40:27.434Z,8.10
2023-04-25T17:42:54.093Z,8.10
2023-04-25T17:45:21.038Z,8.10
2023-04-25T17:47:47.814Z,8.00
2023-04-25T17:50:16.761Z,8.00
2023-04-25T17:52:45.065Z,8.00
2023-04-25T17:55:11.918Z,7.90
2023-04-25T17:57:38.745Z,8.00
2023-04-25T18:00:07.929Z,7.90
2023-04-25T18:02:36.591Z,7.90
2023-04-25T18:05:09.943Z,8.00
2023-04-25T18:07:36.984Z,8.00
2023-04-25T18:10:05.953Z,8.00
2023-04-25T18:12:33.893Z,7.90
2023-04-25T18:15:01.025Z,7.90
2023-04-25T18:17:28.046Z,8.00
2023-04-25T18:19:55.391Z,8.00
2023-04-25T18:22:22.324Z,7.90
2023-04-25T18:24:50.566Z,7.90
2023-04-25T18:27:17.367Z,7.90
2023-04-25T18:29:45.597Z,8.00
2023-04-25T18:32:12.661Z,8.00
2023-04-25T18:34:43.592Z,8.00
2023-04-25T18:37:11.879Z,8.00
2023-04-25T18:39:38.504Z,8.00
2023-04-25T18:42:06.954Z,8.00
2023-04-25T18:44:40.093Z,8.00
2023-04-25T18:47:07.926Z,8.00
2023-04-25T18:49:34.613Z,8.00
2023-04-25T18:52:02.437Z,8.00
2023-04-25T18:54:29.385Z,8.00
2023-04-25T18:56:57.427Z,8.00
2023-04-25T18:59:24.153Z,8.00
2023-04-25T19:01:52.256Z,7.90
2023-04-25T19:04:19.228Z,7.90
2023-04-25T19:06:46.417Z,7.80
2023-04-25T19:09:13.516Z,7.80
2023-04-25T19:11:40.233Z,7.70
2023-04-25T19:14:06.987Z,7.70
2023-04-25T19:16:38.828Z,7.60
2023-04-25T19:19:06.152Z,7.60
2023-04-25T19:21:33.126Z,7.50
2023-04-25T19:24:01.452Z,7.50
2023-04-25T19:26:28.440Z,7.50
2023-04-25T19:29:05.104Z,7.50
2023-04-25T19:31:32.467Z,7.50
2023-04-25T19:33:59.253Z,7.50
2023-04-25T19:36:27.490Z,7.50
2023-04-25T19:38:54.468Z,7.50
2023-04-25T19:41:21.386Z,7.50
2023-04-25T19:43:48.168Z,7.50
2023-04-25T19:46:15.249Z,7.40
2023-04-25T19:48:41.962Z,7.50
2023-04-25T19:51:09.175Z,7.50
2023-04-25T19:53:35.910Z,7.50
2023-04-25T19:56:02.853Z,7.50
2023-04-25T19:58:29.817Z,7.50
2023-04-25T20:00:57.690Z,7.50
2023-04-25T20:03:24.669Z,7.60
2023-04-25T20:05:51.510Z,7.60
2023-04-25T20:08:18.709Z,7.50
2023-04-25T20:10:45.355Z,7.60
2023-04-25T20:13:12.246Z,7.60
2023-04-25T20:15:38.924Z,7.60
2023-04-25T20:18:05.642Z,7.60
2023-04-25T20:20:32.452Z,7.60
2023-04-25T20:22:59.116Z,7.60
2023-04-25T20:25:25.825Z,7.60
2023-04-25T20:27:52.596Z,7.60
2023-04-25T20:30:19.661Z,7.50
2023-04-25T20:32:46.394Z,7.50
2023-04-25T20:35:13.668Z,7.60
2023-04-25T20:37:40.579Z,7.50
2023-04-25T20:40:08.955Z,7.50
2023-04-25T20:42:36.276Z,7.50
2023-04-25T20:45:07.528Z,7.50
2023-04-25T20:47:34.887Z,7.50
2023-04-25T20:50:04.063Z,7.50
2023-04-25T20:52:31.909Z,7.50
2023-04-25T20:54:58.907Z,7.50
2023-04-25T20:57:26.004Z,7.50
2023-04-25T20:59:53.025Z,7.50
2023-04-25T21:02:20.078Z,7.50
2023-04-25T21:04:46.990Z,7.60
2023-04-25T21:07:13.757Z,7.60
2023-04-25T21:09:41.776Z,7.50
2023-04-25T21:12:08.773Z,7.60
2023-04-25T21:14:35.819Z,7.60
2023-04-25T21:17:04.309Z,7.60
2023-04-25T21:19:31.306Z,7.50
2023-04-25T21:21:58.115Z,7.50
2023-04-25T21:24:26.885Z,7.50
2023-04-25T21:26:53.669Z,7.50
2023-04-25T21:29:20.374Z,7.50
2023-04-25T21:31:47.086Z,7.50
2023-04-25T21:34:13.824Z,7.50
2023-04-25T21:36:41.345Z,7.40
2023-04-25T21:39:08.039Z,7.40
2023-04-25T21:41:34.806Z,7.30
2023-04-25T21:44:01.469Z,7.30
2023-04-25T21:46:29.270Z,7.30
2023-04-25T21:48:56.112Z,7.30
2023-04-25T21:51:23.105Z,7.40
2023-04-25T21:53:49.841Z,7.40
2023-04-25T21:56:16.470Z,7.40
2023-04-25T21:58:43.134Z,7.40
2023-04-25T22:01:09.974Z,7.50
2023-04-25T22:03:36.759Z,7.50
2023-04-25T22:06:03.986Z,7.50
2023-04-25T22:08:30.695Z,7.50
2023-04-25T22:10:57.357Z,7.50
2023-04-25T22:13:24.074Z,7.50
2023-04-25T22:15:50.857Z,7.50
2023-04-25T22:18:18.136Z,7.50
2023-04-25T22:20:44.964Z,7.50
2023-04-25T22:23:12.148Z,7.50
2023-04-25T22:25:38.989Z,7.40
2023-04-25T22:28:05.906Z,7.40
2023-04-25T22:30:32.672Z,7.40
2023-04-25T22:32:59.401Z,7.40
2023-04-25T22:35:26.254Z,7.40
2023-04-25T22:37:53.086Z,7.40
2023-04-25T22:40:19.869Z,7.40
2023-04-25T22:42:46.734Z,7.40
2023-04-25T22:45:13.498Z,7.40
2023-04-25T22:47:40.429Z,7.50
2023-04-25T22:50:12.345Z,7.50
2023-04-25T22:52:39.174Z,7.50
2023-04-25T22:55:06.324Z,7.50
2023-04-25T22:57:33.144Z,7.50
2023-04-25T22:59:59.842Z,7.50
2023-04-25T23:02:27.333Z,7.40
2023-04-25T23:04:55.026Z,7.40
2023-04-25T23:07:21.940Z,7.40
2023-04-25T23:09:49.279Z,7.40
2023-04-25T23:12:19.318Z,7.40
2023-04-25T23:14:49.439Z,7.40
2023-04-25T23:17:16.140Z,7.40
2023-04-25T23:19:42.802Z,7.40
2023-04-25T23:22:09.494Z,7.40
2023-04-25T23:24:37.699Z,7.40
2023-04-25T23:27:04.576Z,7.40
2023-04-25T23:29:33.282Z,7.40
2023-04-25T23:32:01.476Z,7.40
2023-04-25T23:34:32.055Z,7.40
2023-04-25T23:37:01.880Z,7.40
2023-04-25T23:39:28.518Z,7.40
2023-04-25T23:41:55.770Z,7.40
2023-04-25T23:44:22.576Z,7.40
2023-04-25T23:46:49.590Z,7.30
2023-04-25T23:49:16.303Z,7.40
2023-04-25T23:51:43.085Z,7.30
2023-04-25T23:54:09.837Z,7.40
2023-04-25T23:56:36.479Z,7.40
2023-04-25T23:59:03.989Z,7.30
